Time;durP1;ratioP1;P1;durP2;ratioP2;P2;SDS_P1;SDS_P2;PMS_P1;PMS_P2;Temp;Humidity;BMP_temperature;BMP_pressure;BME280_temperature;BME280_humidity;BME280_pressure;Samples;Min_cycle;Max_cycle;Signal;HPM_P1;HPM_P2
2023/06/17 00:01:09;;;;;;;7.30;4.80;;;;;;;15.78;86.07;95627.88;5112872;28;20097;-66
2023/06/17 00:03:36;;;;;;;8.98;4.00;;;;;;;15.77;86.45;95625.34;5113001;28;20039;-64
2023/06/17 00:06:04;;;;;;;8.25;5.00;;;;;;;15.75;86.47;95624.66;5112866;28;20047;-65
2023/06/17 00:08:32;;;;;;;5.43;4.93;;;;;;;15.72;87.04;95633.63;5115181;28;20059;-65
2023/06/17 00:10:59;;;;;;;8.40;4.90;;;;;;;15.73;87.10;95634.44;5116368;28;20558;-66
2023/06/17 00:13:26;;;;;;;6.00;5.13;;;;;;;15.69;87.63;95633.00;5116530;28;20071;-65
2023/06/17 00:15:56;;;;;;;8.15;5.20;;;;;;;15.65;87.34;95642.91;5116504;28;20051;-65
2023/06/17 00:18:24;;;;;;;9.73;5.10;;;;;;;15.62;88.67;95641.34;5116375;28;20130;-64
2023/06/17 00:20:52;;;;;;;8.05;5.13;;;;;;;15.62;88.27;95638.72;5116248;28;20764;-65
2023/06/17 00:23:21;;;;;;;5.60;5.00;;;;;;;15.60;87.80;95640.63;5116544;27;20146;-67
2023/06/17 00:25:49;;;;;;;6.55;5.00;;;;;;;15.58;88.00;95639.03;5116327;28;20507;-66
2023/06/17 00:28:17;;;;;;;7.82;4.70;;;;;;;15.62;87.75;95643.16;5116241;28;20051;-66
2023/06/17 00:30:46;;;;;;;8.02;5.68;;;;;;;15.56;88.08;95639.16;5116015;28;20554;-66
2023/06/17 00:33:13;;;;;;;9.68;5.03;;;;;;;15.55;88.64;95634.84;5116087;28;20044;-64
2023/06/17 00:35:40;;;;;;;9.20;5.30;;;;;;;15.49;88.77;95640.56;5116028;28;20044;-66
2023/06/17 00:38:07;;;;;;;7.82;4.72;;;;;;;15.48;89.58;95646.78;5116016;28;20390;-66
2023/06/17 00:40:35;;;;;;;11.38;5.22;;;;;;;15.47;89.81;95645.94;5115688;27;20056;-65
2023/06/17 00:43:02;;;;;;;5.70;5.20;;;;;;;15.49;89.89;95649.31;5115969;28;20401;-65
2023/06/17 00:45:30;;;;;;;12.38;5.45;;;;;;;15.57;90.14;95646.13;5115818;28;20079;-65
2023/06/17 00:47:59;;;;;;;7.65;4.55;;;;;;;15.64;90.42;95641.25;5115757;28;20051;-65
2023/06/17 00:50:28;;;;;;;9.88;5.32;;;;;;;15.63;89.56;95642.19;5115650;28;20047;-65
2023/06/17 00:52:55;;;;;;;6.20;4.95;;;;;;;15.60;89.45;95635.38;5115700;27;20044;-66
2023/06/17 00:55:23;;;;;;;6.13;5.50;;;;;;;15.45;91.02;95644.38;5115780;28;20139;-66
2023/06/17 00:57:53;;;;;;;6.65;5.50;;;;;;;15.41;91.64;95639.31;5115762;27;20485;-66
2023/06/17 01:00:20;;;;;;;6.43;5.83;;;;;;;15.42;91.37;95637.53;5115710;28;20126;-67
2023/06/17 01:02:47;;;;;;;11.45;5.72;;;;;;;15.45;91.41;95632.03;5115480;28;20101;-66
2023/06/17 01:05:16;;;;;;;6.25;5.03;;;;;;;15.43;90.66;95631.31;5115571;27;20044;-65
2023/06/17 01:07:57;;;;;;;7.20;5.65;;;;;;;15.44;91.07;95626.88;5115377;28;20126;-65
2023/06/17 01:10:42;;;;;;;10.93;5.53;;;;;;;15.45;90.95;95633.84;5115523;28;20416;-64
2023/06/17 01:13:14;;;;;;;6.10;5.50;;;;;;;15.40;91.06;95632.38;5115342;28;20248;-66
2023/06/17 01:15:41;;;;;;;8.65;6.05;;;;;;;15.37;91.36;95631.75;5115230;28;20047;-65
2023/06/17 01:18:09;;;;;;;5.97;5.30;;;;;;;15.25;93.08;95633.47;5115044;28;20043;-65
2023/06/17 01:20:37;;;;;;;6.88;6.18;;;;;;;15.21;93.92;95632.84;5115250;28;20043;-66
2023/06/17 01:23:06;;;;;;;7.68;5.88;;;;;;;15.28;94.04;95628.84;5115159;28;20040;-65
2023/06/17 01:25:35;;;;;;;8.52;5.65;;;;;;;15.37;93.91;95631.75;5115070;28;20058;-66
2023/06/17 01:28:15;;;;;;;7.88;5.53;;;;;;;15.41;93.13;95623.50;5115102;28;20077;-66
2023/06/17 01:30:42;;;;;;;7.93;5.97;;;;;;;15.44;92.79;95622.44;5114945;28;20134;-65
2023/06/17 01:33:11;;;;;;;8.70;4.72;;;;;;;15.46;91.40;95627.59;5114964;28;20086;-66
2023/06/17 01:35:40;;;;;;;10.80;5.43;;;;;;;15.42;91.18;95616.47;5114949;28;20047;-65
2023/06/17 01:38:12;;;;;;;5.63;5.13;;;;;;;15.44;91.26;95617.16;5114960;28;20040;-66
2023/06/17 01:40:43;;;;;;;7.30;5.38;;;;;;;15.41;91.62;95620.03;5114598;28;20050;-65
2023/06/17 01:43:14;;;;;;;7.93;5.43;;;;;;;15.41;91.50;95610.34;5114692;28;20079;-66
2023/06/17 01:45:42;;;;;;;9.10;5.15;;;;;;;15.41;91.38;95614.75;5114672;28;20545;-65
2023/06/17 01:48:09;;;;;;;10.88;5.53;;;;;;;15.38;92.09;95605.28;5114650;28;20055;-64
2023/06/17 01:50:36;;;;;;;7.90;5.15;;;;;;;15.34;92.92;95608.25;5114470;28;20048;-64
2023/06/17 01:53:03;;;;;;;5.90;5.38;;;;;;;15.31;93.25;95603.19;5114578;28;20473;-65
2023/06/17 01:55:30;;;;;;;6.10;5.50;;;;;;;15.35;93.30;95604.69;5114658;28;20451;-65
2023/06/17 01:57:59;;;;;;;14.90;5.75;;;;;;;15.40;93.25;95602.53;5114465;28;20128;-65
2023/06/17 02:00:26;;;;;;;7.13;5.43;;;;;;;15.43;92.69;95591.78;5114435;28;20044;-66
2023/06/17 02:02:53;;;;;;;7.53;4.82;;;;;;;15.36;91.54;95591.41;5114363;28;20043;-66
2023/06/17 02:05:20;;;;;;;11.25;5.15;;;;;;;15.39;91.23;95590.31;5114305;28;20066;-65
2023/06/17 02:07:48;;;;;;;6.20;4.95;;;;;;;15.38;90.12;95592.13;5114223;28;20047;-65
2023/06/17 02:10:15;;;;;;;6.38;5.07;;;;;;;15.36;89.00;95591.41;5114260;28;20040;-65
2023/06/17 02:12:42;;;;;;;5.32;4.82;;;;;;;15.35;89.72;95591.50;5114075;28;20043;-64
2023/06/17 02:15:11;;;;;;;5.57;4.50;;;;;;;15.41;90.36;95591.91;5114080;28;20495;-66
2023/06/17 02:17:38;;;;;;;9.35;5.28;;;;;;;15.50;90.47;95595.66;5114099;28;20147;-66
2023/06/17 02:20:09;;;;;;;8.85;5.40;;;;;;;15.60;90.26;95587.94;5113985;28;20558;-65
2023/06/17 02:22:36;;;;;;;;;;;;;;;15.71;91.63;95587.13;5114489;28;20051;-66
2023/06/17 02:25:03;;;;;;;13.98;5.10;;;;;;;15.75;91.56;95583.28;5114024;27;19920;-66
2023/06/17 02:27:30;;;;;;;5.53;4.55;;;;;;;15.79;91.17;95582.13;5113981;28;20477;-65
2023/06/17 02:29:57;;;;;;;5.18;4.18;;;;;;;15.84;91.06;95588.84;5113187;28;20039;-64
2023/06/17 02:32:27;;;;;;;5.93;4.97;;;;;;;15.83;90.71;95587.19;5113718;28;20052;-65
2023/06/17 02:34:57;;;;;;;8.82;5.53;;;;;;;15.88;90.16;95579.75;5113798;28;20049;-64
2023/06/17 02:37:24;;;;;;;6.40;4.72;;;;;;;15.90;90.00;95585.75;5113781;28;20748;-65
2023/06/17 02:39:52;;;;;;;6.28;4.78;;;;;;;15.95;90.21;95583.59;5113698;28;20046;-65
2023/06/17 02:42:19;;;;;;;13.57;4.80;;;;;;;16.01;90.23;95575.25;5113883;28;20056;-65
2023/06/17 02:44:46;;;;;;;8.65;4.90;;;;;;;16.04;90.48;95582.09;5113923;28;20085;-65
2023/06/17 02:47:13;;;;;;;7.35;4.70;;;;;;;16.09;90.30;95581.75;5113593;28;20044;-66
2023/06/17 02:49:41;;;;;;;8.55;4.93;;;;;;;16.08;90.22;95582.72;5113644;28;20087;-66
2023/06/17 02:52:08;;;;;;;5.10;4.60;;;;;;;16.14;90.45;95580.44;5113564;28;20053;-65
2023/06/17 02:54:35;;;;;;;8.55;4.82;;;;;;;16.16;90.54;95577.69;5113561;28;20572;-66
2023/06/17 02:57:02;;;;;;;9.45;4.50;;;;;;;16.20;90.19;95586.22;5113645;28;20079;-65
2023/06/17 02:59:31;;;;;;;7.25;4.35;;;;;;;16.26;90.57;95591.03;5113601;28;20123;-65
2023/06/17 03:01:58;;;;;;;5.18;4.68;;;;;;;16.27;90.16;95590.06;5113577;28;20123;-65
2023/06/17 03:04:25;;;;;;;5.57;4.55;;;;;;;16.26;90.12;95601.59;5113513;28;20044;-66
2023/06/17 03:06:53;;;;;;;12.93;5.13;;;;;;;16.30;90.52;95597.75;5113660;28;20039;-65
2023/06/17 03:09:20;;;;;;;11.80;5.20;;;;;;;16.30;90.00;95595.13;5113411;28;20056;-66
2023/06/17 03:11:48;;;;;;;6.97;4.65;;;;;;;16.29;90.15;95601.38;5113632;28;20048;-66
2023/06/17 03:14:19;;;;;;;6.25;4.63;;;;;;;16.28;90.00;95597.03;5113421;28;20412;-65
2023/06/17 03:16:46;;;;;;;8.32;4.72;;;;;;;16.34;90.10;95596.56;5113462;28;20052;-66
2023/06/17 03:19:14;;;;;;;11.63;4.75;;;;;;;16.34;90.76;95599.19;5113376;28;20138;-65
2023/06/17 03:21:45;;;;;;;5.30;4.22;;;;;;;16.36;89.04;95605.22;5113542;28;20055;-66
2023/06/17 03:24:13;;;;;;;9.30;4.90;;;;;;;16.36;89.75;95612.28;5113528;28;20047;-66
2023/06/17 03:26:40;;;;;;;8.70;5.00;;;;;;;16.34;90.25;95619.47;5113626;28;20082;-65
2023/06/17 03:29:07;;;;;;;10.05;4.80;;;;;;;16.34;89.41;95609.75;5113590;28;20050;-65
2023/06/17 03:31:35;;;;;;;7.75;4.43;;;;;;;16.36;90.24;95613.13;5113492;28;20055;-65
2023/06/17 03:34:02;;;;;;;7.82;4.50;;;;;;;16.38;90.54;95618.28;5113234;28;20441;-66
2023/06/17 03:36:29;;;;;;;7.03;4.55;;;;;;;16.41;90.43;95613.59;5113124;28;20054;-65
2023/06/17 03:38:57;;;;;;;8.25;3.95;;;;;;;16.39;90.10;95620.81;5113229;28;20044;-65
2023/06/17 03:41:26;;;;;;;6.13;4.95;;;;;;;16.34;90.63;95622.94;5113639;28;20109;-65
2023/06/17 03:43:53;;;;;;;6.25;4.60;;;;;;;16.32;90.88;95635.44;5117235;28;20075;-66
2023/06/17 03:46:20;;;;;;;5.95;5.22;;;;;;;16.34;90.70;95636.13;5117195;28;20094;-65
2023/06/17 03:48:47;;;;;;;6.88;4.68;;;;;;;16.37;91.66;95637.69;5116871;28;20083;-66
2023/06/17 03:51:14;;;;;;;9.18;4.53;;;;;;;16.44;91.28;95635.44;5116787;28;20054;-65
2023/06/17 03:53:41;;;;;;;6.53;4.45;;;;;;;16.48;91.11;95631.59;5116919;28;20139;-66
2023/06/17 03:56:08;;;;;;;6.55;4.45;;;;;;;16.46;91.27;95638.81;5116838;28;20047;-66
2023/06/17 03:58:37;;;;;;;5.00;4.47;;;;;;;16.41;91.38;95645.28;5116800;28;20071;-65
2023/06/17 04:01:06;;;;;;;6.57;4.45;;;;;;;16.39;91.77;95636.66;5116778;28;20043;-65
2023/06/17 04:03:34;;;;;;;13.02;4.85;;;;;;;16.44;91.52;95646.00;5116686;28;20646;-65
2023/06/17 04:06:01;;;;;;;7.70;4.35;;;;;;;16.40;92.52;95648.03;5116703;28;20096;-65
2023/06/17 04:08:29;;;;;;;6.78;4.82;;;;;;;16.35;91.87;95644.91;5116634;28;20564;-66
2023/06/17 04:10:56;;;;;;;5.18;4.68;;;;;;;16.33;93.03;95646.81;5116495;28;20047;-66
2023/06/17 04:13:23;;;;;;;7.00;4.53;;;;;;;16.33;92.84;95645.03;5116382;28;20048;-65
2023/06/17 04:15:52;;;;;;;7.80;4.43;;;;;;;16.38;93.97;95652.59;5116609;28;20083;-65
2023/06/17 04:18:19;;;;;;;5.65;4.60;;;;;;;16.40;94.46;95653.31;5116456;28;20408;-65
2023/06/17 04:20:46;;;;;;;5.75;4.35;;;;;;;16.45;94.16;95658.22;5116414;28;20048;-65
2023/06/17 04:23:13;;;;;;;5.55;4.50;;;;;;;16.47;93.93;95649.25;5116326;28;20051;-65
2023/06/17 04:25:40;;;;;;;5.18;4.68;;;;;;;16.52;94.72;95654.16;5116384;28;20044;-65
2023/06/17 04:28:08;;;;;;;6.18;4.72;;;;;;;16.51;94.38;95647.22;5116228;27;20409;-65
2023/06/17 04:30:37;;;;;;;5.03;4.38;;;;;;;16.58;95.76;95648.41;5116415;28;20457;-64
2023/06/17 04:33:12;;;;;;;5.28;4.40;;;;;;;16.62;95.65;95641.94;5116006;28;20079;-66
2023/06/17 04:35:44;;;;;;;9.27;4.57;;;;;;;16.72;95.70;95644.72;5116284;28;20074;-65
2023/06/17 04:38:12;;;;;;;6.10;4.60;;;;;;;16.78;95.72;95640.78;5116057;28;20098;-66
2023/06/17 04:40:45;;;;;;;5.30;4.07;;;;;;;16.86;95.26;95641.00;5115756;28;20044;-65
2023/06/17 04:43:12;;;;;;;7.63;4.75;;;;;;;16.92;95.74;95642.34;5115838;28;20048;-65
2023/06/17 04:45:41;;;;;;;7.13;4.57;;;;;;;16.96;96.22;95646.44;5115753;28;20051;-65
2023/06/17 04:48:11;;;;;;;7.22;5.28;;;;;;;17.04;95.97;95644.00;5116066;28;20094;-65
2023/06/17 04:50:43;;;;;;;5.15;4.50;;;;;;;17.08;94.62;95641.16;5115794;28;20086;-64
2023/06/17 04:53:12;;;;;;;5.10;4.03;;;;;;;17.14;94.41;95638.88;5114829;28;20048;-65
2023/06/17 04:55:40;;;;;;;8.88;4.35;;;;;;;17.21;93.46;95638.38;5115656;27;20051;-65
2023/06/17 04:58:08;;;;;;;4.38;3.97;;;;;;;17.29;92.85;95641.28;5115674;28;20051;-65
2023/06/17 05:00:36;;;;;;;5.75;3.60;;;;;;;17.35;93.08;95637.28;5115546;28;20401;-65
2023/06/17 05:03:04;;;;;;;5.63;3.88;;;;;;;17.39;93.17;95641.38;5115471;28;20447;-65
2023/06/17 05:05:33;;;;;;;9.50;4.10;;;;;;;17.48;93.15;95648.56;5115460;28;20520;-66
2023/06/17 05:08:08;;;;;;;5.20;3.70;;;;;;;17.51;93.17;95644.81;5115522;28;20051;-64
2023/06/17 05:10:35;;;;;;;14.25;4.43;;;;;;;17.52;92.48;95650.00;5115224;28;20050;-64
2023/06/17 05:13:03;;;;;;;6.63;4.57;;;;;;;17.60;92.85;95653.81;5115305;28;20047;-65
2023/06/17 05:15:31;;;;;;;4.40;4.00;;;;;;;17.68;91.13;95660.19;5115583;28;20092;-65
2023/06/17 05:17:58;;;;;;;5.15;3.72;;;;;;;17.77;92.30;95665.69;5115287;28;20448;-66
2023/06/17 05:20:26;;;;;;;5.53;3.78;;;;;;;17.79;92.51;95666.41;5115218;28;20069;-65
2023/06/17 05:22:56;;;;;;;6.15;3.83;;;;;;;17.79;92.10;95666.41;5115062;28;20040;-66
2023/06/17 05:25:23;;;;;;;6.00;4.30;;;;;;;17.86;91.93;95666.75;5115133;28;20054;-65
2023/06/17 05:27:51;;;;;;;7.32;3.92;;;;;;;17.92;91.70;95676.81;5115334;28;20047;-65
2023/06/17 05:30:22;;;;;;;6.35;4.00;;;;;;;17.93;92.00;95682.00;5115302;28;20480;-65
2023/06/17 05:32:49;;;;;;;7.18;4.30;;;;;;;17.97;91.77;95681.75;5115034;28;20052;-65
2023/06/17 05:35:16;;;;;;;5.40;4.28;;;;;;;17.97;92.02;95679.91;5115194;28;20050;-65
2023/06/17 05:37:43;;;;;;;4.65;3.70;;;;;;;18.05;91.12;95690.72;5114856;28;20561;-66
2023/06/17 05:40:13;;;;;;;4.03;3.60;;;;;;;18.15;91.79;95693.47;5114391;28;20048;-65
2023/06/17 05:42:40;;;;;;;5.47;3.92;;;;;;;18.20;91.46;95693.09;5114827;28;20048;-65
2023/06/17 05:45:09;;;;;;;5.65;3.67;;;;;;;18.25;91.19;95700.66;5115132;27;20416;-65
2023/06/17 05:47:36;;;;;;;3.75;3.38;;;;;;;18.29;91.34;95700.28;5114698;28;20123;-66
2023/06/17 05:50:04;;;;;;;4.55;3.75;;;;;;;18.37;91.43;95707.59;5114616;28;20039;-66
2023/06/17 05:52:32;;;;;;;5.10;3.53;;;;;;;18.49;90.42;95702.25;5114786;28;20126;-65
2023/06/17 05:54:59;;;;;;;7.75;4.07;;;;;;;18.51;89.42;95708.25;5114848;28;20075;-65
2023/06/17 05:57:28;;;;;;;6.38;4.22;;;;;;;18.55;90.04;95702.56;5114458;28;20122;-65
2023/06/17 05:59:57;;;;;;;4.45;3.88;;;;;;;18.64;90.98;95700.97;5114358;28;20043;-65
2023/06/17 06:02:25;;;;;;;4.28;3.42;;;;;;;18.71;90.01;95703.94;5114399;28;20058;-65
2023/06/17 06:04:53;;;;;;;5.22;3.70;;;;;;;18.78;91.00;95707.72;5114331;28;20040;-65
2023/06/17 06:07:20;;;;;;;4.93;3.83;;;;;;;18.76;89.63;95701.75;5114372;28;20127;-65
2023/06/17 06:09:48;;;;;;;4.20;3.85;;;;;;;18.75;90.05;95704.53;5114194;28;20499;-65
2023/06/17 06:12:16;;;;;;;5.60;4.20;;;;;;;18.73;89.40;95706.44;5114080;28;20040;-65
2023/06/17 06:14:44;;;;;;;5.82;4.47;;;;;;;18.66;90.18;95712.25;5114102;28;20400;-65
2023/06/17 06:17:12;;;;;;;4.38;3.75;;;;;;;18.64;90.44;95708.91;5114197;28;20047;-65
2023/06/17 06:19:39;;;;;;;4.22;3.53;;;;;;;18.50;90.39;95710.06;5114349;28;20050;-65
2023/06/17 06:22:07;;;;;;;6.68;3.70;;;;;;;18.53;91.03;95704.50;5113990;28;20043;-65
2023/06/17 06:24:34;;;;;;;5.00;3.33;;;;;;;18.52;91.90;95709.94;5114021;28;20047;-65
2023/06/17 06:27:03;;;;;;;7.50;3.50;;;;;;;18.51;92.04;95722.31;5113947;28;20055;-65
2023/06/17 06:29:31;;;;;;;4.97;3.67;;;;;;;18.40;91.91;95723.22;5113912;28;20573;-65
2023/06/17 06:32:00;;;;;;;6.35;4.20;;;;;;;18.41;91.79;95722.25;5113862;28;20090;-64
2023/06/17 06:34:28;;;;;;;6.45;4.20;;;;;;;18.39;91.72;95720.72;5113830;28;20055;-65
2023/06/17 06:36:58;;;;;;;4.10;3.38;;;;;;;18.47;91.86;95717.41;5114081;28;20043;-66
2023/06/17 06:39:27;;;;;;;4.72;3.88;;;;;;;18.52;92.73;95724.03;5114025;28;20039;-65
2023/06/17 06:41:58;;;;;;;7.18;4.35;;;;;;;18.54;92.29;95721.22;5113665;28;20040;-65
2023/06/17 06:44:26;;;;;;;4.82;3.92;;;;;;;18.53;90.96;95715.09;5113806;28;20051;-65
2023/06/17 06:46:56;;;;;;;10.15;4.28;;;;;;;18.58;91.85;95713.88;5113728;28;20048;-65
2023/06/17 06:49:24;;;;;;;4.75;4.05;;;;;;;18.58;89.71;95714.72;5113962;28;20083;-65
2023/06/17 06:51:51;;;;;;;4.65;3.20;;;;;;;18.55;89.38;95709.69;5113793;28;20048;-65
2023/06/17 06:54:19;;;;;;;4.35;3.95;;;;;;;18.60;89.01;95714.59;5113483;28;20051;-64
2023/06/17 06:56:47;;;;;;;4.45;4.05;;;;;;;18.66;88.98;95722.03;5113554;28;20580;-65
2023/06/17 06:59:15;;;;;;;4.18;3.78;;;;;;;18.73;88.68;95712.59;5113795;28;20047;-65
2023/06/17 07:01:42;;;;;;;3.95;3.65;;;;;;;18.84;88.85;95718.78;5113498;28;20055;-65
2023/06/17 07:04:11;;;;;;;5.57;4.30;;;;;;;18.94;88.83;95715.22;5113425;28;20088;-65
2023/06/17 07:06:40;;;;;;;4.35;3.95;;;;;;;19.03;88.01;95713.56;5113424;28;20543;-65
2023/06/17 07:09:08;;;;;;;5.60;4.25;;;;;;;19.10;89.02;95708.63;5113373;28;20485;-65
2023/06/17 07:11:36;;;;;;;5.03;3.50;;;;;;;19.17;87.80;95712.44;5113407;28;20139;-65
2023/06/17 07:14:04;;;;;;;4.88;3.80;;;;;;;19.19;87.97;95709.66;5113508;28;20556;-65
2023/06/17 07:16:32;;;;;;;4.45;3.90;;;;;;;19.20;88.82;95703.38;5114462;28;20455;-65
2023/06/17 07:19:00;;;;;;;3.90;3.50;;;;;;;19.26;88.05;95699.38;5117729;28;20048;-65
2023/06/17 07:21:27;;;;;;;4.53;3.30;;;;;;;19.34;88.40;95701.34;5117503;28;20055;-65
2023/06/17 07:23:56;;;;;;;4.38;3.72;;;;;;;19.44;86.64;95697.75;5117419;28;20400;-65
2023/06/17 07:26:23;;;;;;;5.07;3.83;;;;;;;19.56;88.28;95698.50;5117751;28;20047;-65
2023/06/17 07:28:51;;;;;;;7.13;4.07;;;;;;;19.73;90.07;95697.97;5117465;28;20043;-65
2023/06/17 07:31:19;;;;;;;5.80;4.32;;;;;;;19.91;90.30;95700.81;5117484;27;20049;-65
2023/06/17 07:33:47;;;;;;;6.13;3.78;;;;;;;20.05;89.48;95704.91;5117283;28;20408;-65
2023/06/17 07:36:14;;;;;;;5.25;3.35;;;;;;;20.18;87.81;95707.28;5117468;28;20083;-65
2023/06/17 07:38:42;;;;;;;5.72;3.15;;;;;;;20.27;86.11;95709.13;5117209;28;20493;-65
2023/06/17 07:41:12;;;;;;;5.70;3.60;;;;;;;20.34;84.90;95706.72;5116987;28;20073;-64
2023/06/17 07:43:40;;;;;;;5.10;3.80;;;;;;;20.47;85.77;95711.78;5117190;28;20400;-65
2023/06/17 07:46:07;;;;;;;4.00;3.50;;;;;;;20.54;83.91;95710.22;5117102;28;20055;-65
2023/06/17 07:48:35;;;;;;;4.70;2.88;;;;;;;20.50;76.21;95702.69;5117040;28;20050;-66
2023/06/17 07:51:03;;;;;;;5.18;3.53;;;;;;;20.58;77.74;95700.16;5117047;28;20047;-65
2023/06/17 07:53:30;;;;;;;6.15;3.47;;;;;;;20.77;78.21;95706.44;5117176;28;20052;-65
2023/06/17 07:55:58;;;;;;;3.40;3.08;;;;;;;20.89;73.86;95705.25;5116869;28;20044;-65
2023/06/17 07:58:26;;;;;;;2.60;2.35;;;;;;;20.92;71.22;95699.69;5116906;28;20051;-64
2023/06/17 08:00:54;;;;;;;3.85;2.92;;;;;;;21.02;71.56;95706.81;5116773;28;20131;-65
2023/06/17 08:03:22;;;;;;;3.22;2.90;;;;;;;21.00;69.49;95711.44;5116733;28;20100;-65
2023/06/17 08:05:50;;;;;;;3.97;2.85;;;;;;;20.98;72.46;95706.25;5116701;28;20043;-64
2023/06/17 08:08:19;;;;;;;3.80;3.25;;;;;;;20.96;73.56;95709.06;5116650;28;20050;-65
2023/06/17 08:10:46;;;;;;;4.88;2.90;;;;;;;21.07;73.19;95713.38;5116535;28;20068;-65
2023/06/17 08:13:15;;;;;;;3.58;2.65;;;;;;;21.08;67.98;95714.22;5116487;28;20051;-65
2023/06/17 08:15:44;;;;;;;3.90;2.92;;;;;;;21.05;70.71;95710.03;5116513;28;20069;-65
2023/06/17 08:18:11;;;;;;;4.35;3.33;;;;;;;21.04;72.16;95708.34;5116525;28;20039;-66
2023/06/17 08:20:39;;;;;;;2.72;2.53;;;;;;;21.03;68.09;95706.69;5116446;28;20047;-65
2023/06/17 08:23:08;;;;;;;5.45;2.90;;;;;;;21.02;71.17;95710.31;5116423;28;20054;-66
2023/06/17 08:25:36;;;;;;;3.80;2.55;;;;;;;21.06;70.02;95716.16;5116220;27;20105;-66
2023/06/17 08:28:04;;;;;;;4.18;2.67;;;;;;;21.10;68.73;95711.41;5115067;28;20052;-66
2023/06/17 08:30:31;;;;;;;6.50;3.20;;;;;;;21.17;68.19;95709.84;5116232;28;20093;-65
2023/06/17 08:33:00;;;;;;;9.98;3.10;;;;;;;21.26;68.11;95710.78;5116094;28;20047;-66
2023/06/17 08:35:27;;;;;;;5.10;2.60;;;;;;;21.24;69.84;95715.41;5116187;27;20047;-66
2023/06/17 08:37:54;;;;;;;5.13;2.65;;;;;;;21.31;67.15;95713.88;5116029;28;20050;-66
2023/06/17 08:40:22;;;;;;;4.35;2.60;;;;;;;21.41;68.83;95712.00;5115758;27;20051;-66
2023/06/17 08:42:57;;;;;;;4.38;2.63;;;;;;;21.49;68.90;95711.25;5115944;28;20054;-66
2023/06/17 08:45:26;;;;;;;7.38;2.88;;;;;;;21.29;65.01;95706.03;5116105;28;20485;-65
2023/06/17 08:47:54;;;;;;;4.32;2.88;;;;;;;21.18;65.38;95704.38;5115911;27;20040;-66
2023/06/17 08:50:23;;;;;;;3.95;2.85;;;;;;;21.05;65.69;95704.72;5115832;28;20134;-66
2023/06/17 08:52:51;;;;;;;3.72;2.75;;;;;;;21.15;67.55;95702.03;5115757;28;20046;-66
2023/06/17 08:55:19;;;;;;;4.25;2.60;;;;;;;21.24;66.05;95695.00;5115712;28;20048;-66
2023/06/17 08:57:51;;;;;;;4.43;2.70;;;;;;;21.37;66.91;95697.31;5115683;28;20078;-66
2023/06/17 09:00:19;;;;;;;5.15;2.90;;;;;;;21.51;66.44;95709.28;5115942;28;20054;-66
2023/06/17 09:02:47;;;;;;;5.43;2.70;;;;;;;21.79;71.50;95701.34;5115575;28;20043;-66
2023/06/17 09:05:15;;;;;;;3.58;2.50;;;;;;;22.14;72.27;95703.34;5115662;28;20381;-66
2023/06/17 09:07:44;;;;;;;5.88;2.65;;;;;;;22.40;71.17;95707.94;5115610;28;20050;-66
2023/06/17 09:10:16;;;;;;;7.20;2.63;;;;;;;22.63;69.11;95702.97;5115537;28;20044;-66
2023/06/17 09:12:44;;;;;;;7.05;2.78;;;;;;;22.85;67.75;95711.50;5115478;28;20051;-66
2023/06/17 09:15:17;;;;;;;2.65;2.40;;;;;;;23.02;64.79;95706.28;5115354;28;20055;-66
2023/06/17 09:17:46;;;;;;;2.42;2.20;;;;;;;23.15;62.29;95713.84;5115394;28;20485;-66
2023/06/17 09:20:16;;;;;;;5.88;2.65;;;;;;;23.27;63.35;95714.41;5115314;28;20044;-67
2023/06/17 09:22:47;;;;;;;7.65;2.70;;;;;;;23.39;64.17;95713.16;5115528;28;20048;-66
2023/06/17 09:25:15;;;;;;;5.07;2.45;;;;;;;23.45;64.48;95709.03;5115326;28;20044;-65
2023/06/17 09:27:47;;;;;;;3.60;2.95;;;;;;;23.34;60.34;95724.28;5115259;28;20122;-66
2023/06/17 09:30:15;;;;;;;3.22;2.72;;;;;;;23.32;63.14;95718.28;5115151;28;20044;-66
2023/06/17 09:32:44;;;;;;;2.70;2.47;;;;;;;23.34;62.74;95723.44;5115277;27;20497;-66
2023/06/17 09:35:15;;;;;;;4.80;2.50;;;;;;;23.27;62.76;95720.56;5115103;28;20055;-66
2023/06/17 09:37:51;;;;;;;3.28;2.58;;;;;;;23.25;60.01;95735.06;5114863;28;20485;-65
2023/06/17 09:40:19;;;;;;;6.82;2.97;;;;;;;23.24;61.31;95726.25;5114355;28;20065;-66
2023/06/17 09:42:50;;;;;;;5.25;3.25;;;;;;;23.31;62.50;95724.59;5114867;28;20397;-65
2023/06/17 09:45:24;;;;;;;3.95;2.97;;;;;;;23.32;63.74;95730.75;5115066;28;20079;-66
2023/06/17 09:47:53;;;;;;;6.07;2.80;;;;;;;23.25;62.47;95737.72;5114722;28;20058;-65
2023/06/17 09:50:22;;;;;;;3.78;2.92;;;;;;;23.18;64.55;95735.69;5114687;28;20043;-67
2023/06/17 09:52:54;;;;;;;6.30;3.08;;;;;;;23.12;66.23;95728.34;5114589;28;20051;-66
2023/06/17 09:55:22;;;;;;;4.15;2.92;;;;;;;23.07;66.01;95727.94;5114414;28;20054;-66
2023/06/17 09:57:53;;;;;;;8.20;3.20;;;;;;;23.06;68.15;95726.28;5114541;28;20130;-66
2023/06/17 10:00:26;;;;;;;3.97;2.58;;;;;;;23.00;69.08;95737.56;5114460;28;20061;-66
2023/06/17 10:02:54;;;;;;;4.70;3.08;;;;;;;22.95;70.19;95728.22;5114368;27;20051;-66
2023/06/17 10:05:23;;;;;;;6.30;3.30;;;;;;;22.88;70.70;95727.19;5114476;28;20059;-66
2023/06/17 10:07:54;;;;;;;12.87;3.53;;;;;;;22.85;71.01;95728.31;5114429;28;20097;-66
2023/06/17 10:10:24;;;;;;;4.45;3.30;;;;;;;22.86;71.06;95729.16;5114347;28;20044;-66
2023/06/17 10:12:54;;;;;;;6.57;3.25;;;;;;;22.88;71.13;95721.00;5114303;28;20071;-66
2023/06/17 10:15:25;;;;;;;3.78;2.95;;;;;;;22.90;71.54;95722.50;5114201;28;20091;-65
2023/06/17 10:17:55;;;;;;;6.40;2.80;;;;;;;22.96;72.04;95724.56;5114125;28;20490;-65
2023/06/17 10:20:24;;;;;;;4.35;2.92;;;;;;;23.06;70.98;95720.97;5114127;28;20058;-66
2023/06/17 10:22:54;;;;;;;6.00;3.15;;;;;;;23.18;71.29;95713.53;5114087;28;20104;-66
2023/06/17 10:25:24;;;;;;;6.88;2.97;;;;;;;23.37;71.46;95706.31;5114059;28;20070;-66
2023/06/17 10:27:52;;;;;;;7.35;3.22;;;;;;;23.57;72.16;95704.25;5114001;28;20554;-66
2023/06/17 10:30:27;;;;;;;4.10;3.10;;;;;;;23.67;73.51;95699.63;5114066;28;20051;-65
2023/06/17 10:32:59;;;;;;;6.50;3.30;;;;;;;23.75;71.99;95693.44;5114139;28;20044;-66
2023/06/17 10:35:38;;;;;;;4.22;3.83;;;;;;;23.91;72.82;95691.84;5113709;28;20047;-66
2023/06/17 10:38:09;;;;;;;6.85;3.30;;;;;;;23.97;70.02;95693.88;5113758;28;20507;-65
2023/06/17 10:40:41;;;;;;;5.78;3.05;;;;;;;23.99;71.16;95691.88;5113574;28;20187;-66
2023/06/17 10:43:20;;;;;;;5.63;3.53;;;;;;;24.00;73.36;95688.19;5113711;28;20047;-66
2023/06/17 10:45:53;;;;;;;11.35;6.50;;;;;;;24.06;69.56;95690.22;5113743;28;20047;-66
2023/06/17 10:48:29;;;;;;;4.70;3.78;;;;;;;24.09;70.36;95684.56;5113753;28;20051;-66
2023/06/17 10:50:59;;;;;;;7.72;3.72;;;;;;;24.11;69.02;95689.72;5113096;28;20489;-66
2023/06/17 10:53:30;;;;;;;4.30;3.38;;;;;;;23.94;68.38;95688.84;5113437;28;20052;-65
2023/06/17 10:56:00;;;;;;;7.18;3.60;;;;;;;23.83;66.94;95682.81;5113493;28;20097;-66
2023/06/17 10:58:32;;;;;;;3.92;3.30;;;;;;;23.84;67.43;95686.34;5113533;28;20048;-66
2023/06/17 11:01:01;;;;;;;4.63;3.03;;;;;;;23.75;66.86;95679.28;5113483;28;20051;-66
2023/06/17 11:03:29;;;;;;;3.60;2.80;;;;;;;23.71;66.35;95682.28;5113463;28;20117;-66
2023/06/17 11:06:00;;;;;;;5.38;3.55;;;;;;;23.81;65.90;95678.63;5113532;28;20043;-66
2023/06/17 11:08:30;;;;;;;4.03;3.08;;;;;;;23.75;67.48;95677.44;5113550;28;20101;-66
2023/06/17 11:11:08;;;;;;;7.50;3.65;;;;;;;23.81;68.00;95675.97;5113470;28;20075;-67
2023/06/17 11:13:36;;;;;;;4.35;3.00;;;;;;;23.85;67.88;95672.81;5113414;28;20087;-66
2023/06/17 11:16:04;;;;;;;3.97;2.88;;;;;;;23.91;66.76;95671.31;5113383;28;20048;-66
2023/06/17 11:18:35;;;;;;;5.35;2.88;;;;;;;24.07;67.96;95670.50;5113373;28;20101;-67
2023/06/17 11:21:03;;;;;;;5.45;3.70;;;;;;;24.04;66.04;95668.16;5113303;28;20050;-66
2023/06/17 11:23:33;;;;;;;6.32;2.85;;;;;;;24.19;66.08;95668.41;5113336;28;20104;-66
2023/06/17 11:26:01;;;;;;;10.13;2.97;;;;;;;24.34;66.42;95681.09;5113395;28;20044;-67
2023/06/17 11:28:28;;;;;;;4.82;2.95;;;;;;;24.35;66.18;95677.44;5113636;28;20051;-66
2023/06/17 11:30:57;;;;;;;5.30;2.80;;;;;;;24.25;63.75;95679.41;5113371;28;20126;-67
2023/06/17 11:33:24;;;;;;;6.40;3.60;;;;;;;24.26;67.96;95676.56;5113239;28;20405;-67
2023/06/17 11:35:54;;;;;;;4.82;2.97;;;;;;;24.23;66.06;95677.75;5113123;28;20480;-65
2023/06/17 11:38:24;;;;;;;6.93;3.25;;;;;;;24.14;66.38;95669.91;5113197;28;20044;-66
2023/06/17 11:40:59;;;;;;;5.47;2.75;;;;;;;24.05;63.23;95677.03;5112897;28;20143;-66